Member area
Imprimable
Bouillon, 25/04/2015, BEL - La Bouillonnante
List of reports > 56km - Classement
Search: Page: [1]
139 Entries
 
Complains are not accepted anymore. Results are final.
PlaceNrNameAgeNATTeamRealTimeTkmMoy.ScrCity
1.1004LALLEMAND Geoffrey36BELTRAIL DE LA LESSE5:28:425:28:425:53 10.222PORCHERESSE
2.1002PASQUE Fabrice39BELTEAM TRAIL SALOMON BELGIU5:38:065:38:066:03 9.9446010
3.2022VAN GULCK Olivier32BEL5:43:365:43:366:09 9.785BRUXELLES
4.1461GOEYERS Dirk34BELVAC5:56:565:56:566:23 9.4110MACHELEN
5.1536HUBERT Charles32BELTCDM6:14:206:14:206:42 8.9812MONS
6.1181CHASSAIN Vincent38FRA6:26:096:26:096:54 8.701357100
7.1700MARTIN Samuel34FRA6:26:386:26:386:55 8.6915SAINTE-MÉNEHOULD
8.1582KOTECKY Ondrej38CZEWALFER HUESEN6:31:126:31:127:00 8.5918HELMSANGE
9.2045VERDOOT Xavier37BEL6:31:186:31:187:00 8.5919GENVAL
10.1832PLASMANNE Maxime35BEL6:32:396:32:397:01 8.5621LASNE
11.1790PAQUET Raphaël36BEL6:36:246:36:247:05 8.4824LES FOSSÉS
12.1844POUCET Bérenger29BELCHIMAY TRAIL AVENTURE6:36:396:36:397:05 8.4725CHIMAY
13.1373DUMONT Mathieu33BELMADRES6:42:306:42:307:12 8.3529WOLUWE
14.1156GERARD Jonathan32BEL6:43:296:43:297:13 8.3330FLORENVILLE
15.1605LAUNOIS Jerome30BEL6:45:056:45:057:15 8.2931FOREST
16.1435GENTGEN Maël28BELRUNNING TEAM6:45:066:45:067:15 8.2932VIRTON
17.1438GERARD Jérôme32BELGTTS6:50:286:50:287:20 8.19346812
18.1573KEMPINAIRE Bernard37BEL6:51:506:51:507:22 8.1636BRAIVES
19.1259DE COCK Tom35BEL6:52:176:52:177:22 8.1537GENK
20.1415FRANCOIS Benoît39BELTHÉODOTEMPO6:54:406:54:407:25 8.1038NEUFVILLES
21.1293DELRIVIERE Hubert28BEL6:55:006:55:007:25 8.1039LIGNE
22.2076VANDEVANDEL Christophe36BEL6:58:086:58:087:28 8.0440LEUZE
23.2080ELOY Mathieu35BELFLEURUS6:59:226:59:227:30 8.0142
24.1376DUPUIS Thomas31BELESM6:59:486:59:487:30 8.0043FROIDCHAPELLE
25.1133BRANDES Sebastian34BELCOURIR À LIEUSAINT7:03:427:03:427:34 7.9345LIEUSAINT
26.1548LETESSON Guillaume29BELESM7:03:477:03:477:35 7.9346LEERNES
27.1733MOLLE Xavier28BEL7:05:347:05:347:36 7.9047BRUXELLES
28.1715WINTERS Erik34BEL7:07:367:07:367:39 7.8648BORNEM
29.1321DE SAUVAGE Edouard26BEL7:09:377:09:377:41 7.8250FOREST
30.1355DOYER Benjamin36FRA7:14:477:14:477:46 7.7355LOUCHES
31.1272DE GROOTE Charles28BEL7:17:117:17:117:49 7.6956LASNE
32.1357DUBOIS Bertrand38BELPARNASSE7:18:557:18:557:51 7.6657LONZEE
33.1711MATHY Axel27BEL7:20:577:20:577:53 7.6261GREZ-DOICEAU
34.1349DODRIMONT Cedric31BELTRAIL'IN BASTOGNE7:21:297:21:297:54 7.6165BASTOGNE
35.1920SCHUSTER Nicolas34FRATRAIL'IN BASTOGNE7:21:297:21:297:54 7.6167BERTOGNE
36.1118BOUDSOCQ Stephane39FRA7:21:487:21:487:54 7.6169THILAY
37.1938SOMVILLE Pierrot38BEL7:25:577:25:577:58 7.5371LIÈGE
38.1364DUCHENE Bertrand29BELELIO TEAM7:27:057:27:058:00 7.5272LIBRAMONT
39.1648LEROY William29FRA7:28:127:28:128:01 7.5073LOGNY-BOGNY
40.1979TINE Elie33FRAAS CRS 237:28:137:28:138:01 7.5074NOUZONVILLE
41.1978TIMMERMANS Gaëtan27BEL7:28:287:28:288:01 7.4975MAZY
42.1012AGEZ Loïc28FRA7:29:217:29:218:02 7.4877LA MADELEINE
43.1408FLOURY Grégory38FRAJC BULLY7:30:177:30:178:03 7.4678DOUVRIN
44.1691MARECHALLE Maxime31FRA7:33:377:33:378:07 7.4179LESQUIELLES SAINT GERMAIN
45.1805PESENTI Nicolas31FRAK RAID ARDENNES7:33:467:33:468:07 7.4080CHARLEVILLE-MÉZIÈRES
46.1244HAOUISEE Cedric39FRAACGN7:35:367:35:368:09 7.3781CHARLEVILLE-MÉZIÈRES
47.1121BOURDINIERE Aurelien34FRAUSCN7:37:267:37:268:11 7.3585HAUDRECY
48.1981TOUCHEQUE Grégory33BELTRAIL'IN ASTOGNE7:39:097:39:098:12 7.3289BASTOGNE
49.1643LEPINOIS Nicolas28BELTRAIL'IN BASTOGNE7:39:147:39:148:13 7.3291BASTOGNE
50.1625LEGERE Olivier35BELLDLV7:39:267:39:268:13 7.3192BRUXELLES
51.1507ESTIN David38BELGINGER RUNNER7:39:287:39:288:13 7.3193
52.1312DEOME Olivier34BEL7:41:247:41:248:15 7.28100LAMOULINE
53.2021VAN GORP Timmy35BEL7:41:417:41:418:15 7.28101GEEL
54.1735MONSIEURS Janik38BELAC LIERSE7:41:587:41:588:15 7.27102KESSEL
55.1288DELOMEZ Jérome38FRACLUB DE LAPUGNOY7:43:027:43:028:17 7.26104PERNES
56.1755NAESSENS Guillaume35FRA7:46:057:46:058:20 7.21109LILLE
57.1237DASNOIS Jérôme37FRAUSC NOUVION SUR MEUSE7:47:317:47:318:21 7.19110BALAIVES ET BUTZ
58.1332CAMUS Renaud36FRAPSA7:47:317:47:318:21 7.19111CHARLEVILLE MEZIERES
59.1860RADERMECKER Nicolas33BELGERPINNES & CO7:49:197:49:198:23 7.16113GOUGNIES
60.1182TIMMERMANS Jean-Philippe33BELCHIMAY TRAIL AVENTURE7:50:447:50:448:25 7.14115
61.1316DEPRETZ Sebastien34FRACCCIE7:54:297:54:298:29 7.08119LOMME
62.1547IMBERT Thomas37FRA7:55:067:55:068:30 7.07120FOURMIES
63.1581KOLENDA Stany37BELVELO SPORT PONT À CELLES7:57:287:57:288:32 7.04122LEVAL-TRAHEGNIES
64.1340DEWEZ Michael35BEL7:58:117:58:118:33 7.03124OPHAIN
65.1583KOWALCZYK Benoit30BELTEAM QU.BE8:00:208:00:208:35 7.00129ESTINNES-AU-MONT
66.1158CANON Mathieu39BELLDLV8:00:568:00:568:36 6.99131BRUXELLES
67.2032VANSANTVOET Stephane39BELRUNNING TEAM 11.11.118:00:578:00:578:36 6.99132BRUXELLES
68.1841POSKIN Julien33BELOTC - CPMV8:02:018:02:018:37 6.97133NALINNES
69.1201COLON Yohan25BEL8:03:098:03:098:38 6.95134GOUY-LES-PIETONS
70.1651LHERNOULD Pierre37FRA8:03:228:03:228:38 6.95135WATERLOO
71.1164GOFFE Nicolas31BEL8:03:308:03:308:39 6.95136PIN
72.1021ALLEMEERSH Olivier37FRATEAM RAIDLIGHT/ RUNAO8:03:428:03:428:39 6.95137MOUSCRON
73.1384EGGERMONT Martin28BELRCB8:03:598:03:598:39 6.94138ETTERBEEK
74.1744MOUCHART Aurelien26FRA8:04:068:04:068:39 6.94140MARCQ EN BAROEUL
75.1320DERVILLEE David34FRALES VERTS DE TERRE8:10:028:10:028:46 6.86148ORIGNY EN THIÉRACHE
76.1786PAMART Luc38FRALES X'PLATCH8:10:068:10:068:46 6.86149ONNAING
77.1479GRIMARD Bruno26BEL8:12:338:12:338:48 6.82156AISEAU
78.1653LIBERT Julien27BEL8:12:348:12:348:48 6.82157BUZET
79.1209COQUELET Joffrey37BEL8:13:048:13:048:49 6.81159BOUSSOIT
80.1903SAISON Gregoire31FRA8:15:498:15:498:52 6.78163SOLRE LE CHATEAU
81.1794PAUCOT Logan32FRA8:15:558:15:558:52 6.78164CLAIRFAYTS
82.1144BURNIAUX François30BEL8:16:418:16:418:53 6.77166UCCLE
83.1681MALCOTTE Jérôme37BELLES VERTS DE TERRE8:20:558:20:558:57 6.71169ANOR
84.1166CARON Christophe34BEL8:22:158:22:158:59 6.69172HENRIPONT
85.1740MORLOT Damien38FRA8:23:078:23:079:00 6.68175HABERGY
86.1446GILET Gaetan37BELRAIDLIGHT TEAM8:25:328:25:329:02 6.65177MONT SAINT GUIBERT
87.1402FAUQUENOY Sylvain31FRARUNAO TEAM8:27:298:27:299:04 6.62180NAMUR
88.1458GODART Fabien39FRAATHLETIC BELAIR CLUB8:28:078:28:079:05 6.61182CHARLEVILLE MEZIERES
89.1188CLAES Arnaud29BEL8:29:308:29:309:06 6.59187DROGENBOS
90.1268DEFOSSE Jeremy26FRAJOGGING CROSS BULLY8:29:358:29:359:06 6.59189HOUDAIN
91.1429GASPARI Alexandre38BEL8:31:198:31:199:08 6.57191COURT-SAINT-ETIENNE
92.1481DOKIA Joris27BELENDURANCE SHOP VALENCIENN8:32:398:32:399:10 6.55193
93.1466GOOSSENS Thomas30BEL11/11/11 RUNNING TEAM8:32:518:32:519:10 6.55194BRUXELLES
94.1238DASNOY Julien25BEL8:33:338:33:339:11 6.54195BERTRIX
95.1022ALVAREZ PEREZ Raphael39BEL8:34:138:34:139:11 6.53198BRUXELLES
96.1281DELAPLACE Pierre37BELSMAC8:34:248:34:249:12 6.53199PROFONDEVILLE
97.2063VISSE Ludovic27FRALES VIROQUOIS8:35:198:35:199:13 6.52200RANCENNES
98.1328ELSEN Frederic38BELCPMV8:35:238:35:239:13 6.52201
99.1652L'HOMME Raynald38FRAJOGGING CROSS BULLY8:35:388:35:389:13 6.52202ANGRES
100.1409FLUCK Lionel34FRAFOMBES TRAIL TEAM8:36:508:36:509:14 6.50205SELTZ
101.1450GILLIOT Sébastien34FRAWORLDLINE8:38:178:38:179:16 6.48208PHALEMPIN
102.1284BOUCHEZ Yannick36BEL8:40:308:40:309:18 6.46213SPY
103.1111HIERNAUX Yves37BELRUNNING TEAM 11.11.118:40:428:40:429:18 6.45214BRUSSELS
104.1042BAETENS Damien36BEL8:42:228:42:229:20 6.43216NAMUR
105.1655LIEGEOIS Vincent35BELWAL'COURSE8:44:538:44:539:23 6.40217MONS
106.1470GRANDJEAN Quentin34BELGTTS8:48:488:48:489:27 6.35220FLORENVILLE
107.1801PENNE Nico35BEL8:50:448:50:449:29 6.33225ERPE-MERE
108.1620LECOMTE Florent37FRAUSC NOUVION SUR MEUSE8:56:558:56:559:36 6.26236FLIZE
109.1211CORDIER Adrien34FRAL' ELAN ONNAINGEOIS9:00:039:00:039:39 6.22240ONNAING
110.1770NISOL Julien32FRAL' ELAN ONNAINGEOIS9:00:039:00:039:39 6.22241SAINT SAULVE
111.1732MOLINARI Yann33FRA9:04:439:04:439:44 6.17242CERFONTAINE
112.1344DIEDERLE Arnaud36FRAFOMBES TRAIL TEAM9:07:589:07:589:48 6.13245SELTZ
113.1731MOLINARD Florent31FRAATOS WORLDLINE9:08:589:08:589:49 6.12246LOMME
114.1856QUILLIOT Jean-Bernard34FRAWORLDLINE9:08:599:08:599:49 6.12248BOESCHEPE
115.1185CHOUVIN Guillaume35FRA9:10:349:10:349:50 6.10249COURTRAI
116.1324DESCHUYTENEER Stéphane38BELET CHIEVRES9:11:549:11:549:52 6.09251LESSINES
117.1123BOUTON Olivier26FRA9:12:359:12:359:53 6.08255LA CHAPELLE D'ARMENTIERES
118.1475GRENIER Laurent32FRA9:15:219:15:219:56 6.05261REIMS
119.1371DUFRESNOY Frederic30BEL9:16:349:16:349:57 6.04265ANDENNE
120.1151BUTZ Nicolas37FRAFOMBES TRAIL TEAM9:18:099:18:099:59 6.02267TOURINNES-LA-GROSSE
121.1270DEGRAEVE Kenny30BELDAPALO9:27:349:27:3410:09 5.92272DADIZELE
122.2006VANDENWEGHE Juan36BELDAPALO9:27:369:27:3610:09 5.92273MENEN
123.1082BIARD Guy27FRA9:33:259:33:2510:15 5.86280LA CHAPELLE D'ARMENTIERES
124.1421FUMIERE Olivier36BEL9:33:309:33:3010:15 5.86281LA LOUVIERE
125.1125BOUTON Raphaël33FRASERVINS A.C9:34:239:34:2310:16 5.85283ESTREE-CAUCHY
126.1381ECHEVIN Pascal37FRA9:47:349:47:3410:30 5.72298CONDÉ SUR ESCAUT
127.1833PLATEAU Frédéric38FRA9:47:409:47:4010:30 5.72299MARCQ EN BAROEUL
128.2051VÉRITER Mathieu34BEL10:03:0510:03:0510:47 5.57304LA HULPE
129.1613LEBEC Nicolas38BEL10:03:3010:03:3010:47 5.57305SAINT SERVAIS
130.1593LAGRENET Cedric33BELJET - EUROPEAN FITNESS10:03:5310:03:5310:48 5.56306BRUXELLES
131.2024VANHULST Jean-Philippe32BEL10:03:5510:03:5510:48 5.56308GENVAL
132.1710DUJACQUIER Christelle39BEL10:17:3110:17:3111:02 5.44313JAMIOULX
133.1379ECCLESIA Antonio32FRAAS SOMMER10:26:4010:26:4011:12 5.36316SEDAN
134.1804PERRIER Pascal39FRA10:51:0410:51:0411:38 5.16318VILLERUPT
135.1927SILVERANS Philippe33BEL11:02:5711:02:5711:51 5.07319DINANT
DSQ1946SPUTAEL Olivier27BEL8:09:158:09:15STROMBEEK-BEVER
DNF1410FOCCROULLE Guillaume28BELTRAIL FOR FUN4130
DNF1553JACQUEMIN Henri34BELBERTRIX
DNF1594WATELET Guillaume35BELBRUXELLES
DNF: did not finish; DSQ: disqualified; Speed in km/h
Page: [1]